»·PEaware :: N9496E KSMX-KBFL

N9496E :: KSMX-KBFL

FLIGHT INFORMATION

Flight Status: Arrived
Operator: Privately registered:
United States
More flights under this callsign
Pilot: Lucas S. (19044)
Aircraft: CESSNA 172 SKYHAWK
(C172)
More flights by this aircraft type
Origin: KSMX Santa Maria Pub/Capt Hancock
United States
Destination: KBFL Meadows
United States
More flights between these airports :: More routes between these airports
Route: +
File this flight plan on PilotEdge
Remarks: NONE
Altitude:
(Current/Filed)
7,500ft
Speed:
(Current/Filed)
115kts
Departed: 16-May-18 03:33 PM
Arrived: 16-May-18 05:00 PM
Distance/Time
Traveled:
76nm/1:27
Distance/Time
To Go:
Arrived

Flight Plot

Page will automatically refresh every two minutes.


Map Options




Map Legend


Flown Route
Filed Route
Departure Airport
Arrival Airport
Navaid (VOR, NDB)
Fix

Horizontal Profiles

Position Reports

Time Latitude Longitude Heading Altitude Ground
Speed
16-May-18 15:10 34.896796 -120.445809 315 265ft 0kts
16-May-18 15:11 34.896796 -120.445809 315 265ft 0kts
16-May-18 15:12 34.896796 -120.445809 315 265ft 0kts
16-May-18 15:13 34.896796 -120.445809 315 265ft 0kts
16-May-18 15:14 34.896796 -120.445809 315 265ft 0kts
16-May-18 15:15 34.896796 -120.445809 315 265ft 0kts
16-May-18 15:16 34.896796 -120.445809 315 265ft 0kts
16-May-18 15:17 34.896796 -120.445809 315 265ft 0kts
16-May-18 15:18 34.896796 -120.445809 315 265ft 0kts
16-May-18 15:19 34.896796 -120.445809 315 265ft 0kts
16-May-18 15:20 34.896796 -120.445809 315 265ft 0kts
16-May-18 15:21 34.896796 -120.445809 315 265ft 0kts
16-May-18 15:22 34.896796 -120.445809 315 265ft 0kts
16-May-18 15:23 34.896796 -120.445809 315 265ft 0kts
16-May-18 15:24 34.897558 -120.447037 308 265ft 16kts
16-May-18 15:25 34.897789 -120.448803 216 265ft 9kts
16-May-18 15:26 34.895468 -120.446537 136 265ft 22kts
16-May-18 15:27 34.893763 -120.444982 183 265ft 0kts
16-May-18 15:28 34.893763 -120.444982 183 265ft 0kts
16-May-18 15:29 34.893763 -120.444982 183 265ft 0kts
16-May-18 15:30 34.893763 -120.444982 183 265ft 0kts
16-May-18 15:31 34.893763 -120.444982 183 265ft 0kts
16-May-18 15:32 34.893051 -120.445529 239 265ft 15kts
16-May-18 15:33 34.896527 -120.450253 314 435ft 56kts
16-May-18 15:34 34.902628 -120.458306 312 1055ft 55kts
16-May-18 15:35 34.908553 -120.466502 308 1613ft 56kts
16-May-18 15:36 34.915315 -120.473494 338 2136ft 62kts
16-May-18 15:37 34.924334 -120.467127 60 2609ft 89kts
16-May-18 15:38 34.926485 -120.449191 71 3060ft 100kts
16-May-18 15:39 34.929150 -120.428909 70 3595ft 103kts
16-May-18 15:40 34.932345 -120.408157 69 4151ft 103kts
16-May-18 15:41 34.936356 -120.389187 64 4682ft 100kts
16-May-18 15:42 34.940671 -120.372514 60 5153ft 98kts
16-May-18 15:43 34.945977 -120.355658 59 5588ft 101kts
16-May-18 15:44 34.951297 -120.340054 56 6074ft 93kts
16-May-18 15:45 34.956428 -120.325424 54 6577ft 84kts
16-May-18 15:46 34.961348 -120.311685 57 6983ft 86kts
16-May-18 15:47 34.965330 -120.297258 68 7394ft 87kts
16-May-18 15:48 34.968419 -120.281468 69 7587ft 111kts
16-May-18 15:49 34.972404 -120.263303 67 7702ft 124kts
16-May-18 15:50 34.977089 -120.243608 67 7787ft 130kts
16-May-18 15:51 34.983228 -120.222232 57 7447ft 131kts
16-May-18 15:52 34.991410 -120.203982 52 7329ft 112kts
16-May-18 15:53 34.999830 -120.189077 41 7322ft 90kts
16-May-18 15:54 35.008546 -120.175981 39 7425ft 103kts
16-May-18 15:55 35.016473 -120.159823 67 7634ft 124kts
16-May-18 15:56 35.019046 -120.134977 90 7677ft 139kts
16-May-18 15:57 35.019028 -120.108542 81 7502ft 152kts
16-May-18 15:58 35.022500 -120.082621 78 7484ft 143kts
16-May-18 15:59 35.028009 -120.055923 70 7489ft 139kts
16-May-18 16:00 35.035569 -120.031356 64 7485ft 139kts
16-May-18 16:01 35.043684 -120.006680 65 7409ft 141kts
16-May-18 16:02 35.051942 -119.982037 63 7401ft 139kts
16-May-18 16:03 35.060655 -119.958193 63 7427ft 127kts
16-May-18 16:04 35.068840 -119.935425 67 7364ft 128kts
16-May-18 16:05 35.075619 -119.912431 68 7436ft 121kts
16-May-18 16:06 35.082918 -119.889310 64 7394ft 124kts
16-May-18 16:07 35.091214 -119.865145 65 7247ft 131kts
16-May-18 16:08 35.098404 -119.840870 70 7329ft 120kts
16-May-18 16:09 35.104080 -119.820382 68 7455ft 115kts
16-May-18 16:10 35.111421 -119.798882 64 7570ft 115kts
16-May-18 16:11 35.119517 -119.773766 65 7437ft 127kts
16-May-18 16:12 35.128512 -119.749271 62 7391ft 124kts
16-May-18 16:13 35.136884 -119.726579 61 7397ft 123kts
16-May-18 16:14 35.145160 -119.704729 58 7482ft 119kts
16-May-18 16:15 35.155224 -119.684569 48 7489ft 122kts
16-May-18 16:16 35.168138 -119.668807 34 7482ft 119kts
16-May-18 16:17 35.181894 -119.654891 28 7487ft 117kts
16-May-18 16:18 35.196006 -119.643740 27 7546ft 114kts
16-May-18 16:19 35.209988 -119.629999 41 7447ft 126kts
16-May-18 16:20 35.222936 -119.612652 42 7431ft 121kts
16-May-18 16:21 35.234929 -119.594748 47 7431ft 122kts
16-May-18 16:22 35.243499 -119.572266 74 7370ft 130kts
16-May-18 16:23 35.245994 -119.545834 81 7406ft 125kts
16-May-18 16:24 35.255151 -119.523988 56 7405ft 124kts
16-May-18 16:25 35.264359 -119.501452 59 7403ft 124kts
16-May-18 16:26 35.273208 -119.478466 59 7513ft 118kts
16-May-18 16:27 35.281893 -119.456093 59 7515ft 123kts
16-May-18 16:28 35.290916 -119.431782 64 7246ft 136kts
16-May-18 16:29 35.299944 -119.405527 63 6828ft 127kts
16-May-18 16:30 35.308085 -119.379205 63 6434ft 127kts
16-May-18 16:31 35.315623 -119.352801 66 5932ft 125kts
16-May-18 16:32 35.324557 -119.330180 57 5415ft 123kts
16-May-18 16:33 35.331495 -119.306000 50 4989ft 116kts
16-May-18 16:34 35.340934 -119.285314 82 4439ft 124kts
16-May-18 16:35 35.346245 -119.260589 63 3647ft 121kts
16-May-18 16:36 35.353927 -119.239099 72 3204ft 108kts
16-May-18 16:37 35.359269 -119.218453 64 2569ft 108kts
16-May-18 16:38 35.364407 -119.200573 69 2283ft 92kts
16-May-18 16:39 35.370079 -119.185386 67 1954ft 91kts
16-May-18 16:40 35.374886 -119.170284 57 1680ft 86kts
16-May-18 16:41 35.385085 -119.168443 317 1830ft 67kts
16-May-18 16:42 35.384320 -119.182338 249 2154ft 75kts
16-May-18 16:43 35.381151 -119.197382 248 2452ft 76kts
16-May-18 16:44 35.367938 -119.199034 157 2530ft 103kts
16-May-18 16:45 35.362589 -119.180774 93 2104ft 101kts
16-May-18 16:46 35.362673 -119.163255 75 1732ft 92kts
16-May-18 16:47 35.365513 -119.146348 88 1342ft 98kts
16-May-18 16:48 35.360224 -119.126823 108 1394ft 113kts
16-May-18 16:49 35.360533 -119.107342 52 1399ft 107kts
16-May-18 16:50 35.362792 -119.087530 77 1428ft 105kts
16-May-18 16:51 35.360341 -119.067718 67 1691ft 115kts
16-May-18 16:52 35.365008 -119.048319 64 1700ft 121kts
16-May-18 16:53 35.369293 -119.028967 68 1880ft 110kts
16-May-18 16:54 35.375237 -119.009689 51 1530ft 109kts
16-May-18 16:55 35.387673 -118.998370 26 1296ft 91kts
16-May-18 16:56 35.401352 -118.999030 329 1066ft 72kts
16-May-18 16:57 35.407596 -119.016963 273 944ft 73kts
16-May-18 16:58 35.415743 -119.037980 329 791ft 70kts
16-May-18 16:59 35.430310 -119.055396 309 534ft 68kts
16-May-18 17:00 35.436807 -119.063275 314 510ft 12kts
16-May-18 17:01 35.438228 -119.065968 216 510ft 0kts
16-May-18 17:02 35.438228 -119.065968 216 510ft 0kts
16-May-18 17:03 35.438228 -119.065968 216 510ft 0kts
16-May-18 17:04 35.438228 -119.065968 216 510ft 0kts
16-May-18 17:05 35.438228 -119.065968 216 510ft 0kts
16-May-18 17:06 35.438228 -119.065968 216 510ft 0kts
16-May-18 17:07 35.438228 -119.065968 216 510ft 0kts
16-May-18 17:08 35.436839 -119.064508 133 510ft 21kts
16-May-18 17:09 35.434257 -119.061373 137 510ft 24kts
16-May-18 17:10 35.431097 -119.057550 136 510ft 24kts
16-May-18 17:11 35.428653 -119.055579 172 510ft 12kts
16-May-18 17:12 35.427862 -119.055330 165 510ft 0kts
16-May-18 17:13 35.427862 -119.055330 165 510ft 0kts
16-May-18 17:14 35.427862 -119.055330 165 510ft 0kts

Navigation Log

Ident Type
1. KSMX Airport
2. KBFL Airport